Time;durP1;ratioP1;P1;durP2;ratioP2;P2;SDS_P1;SDS_P2;PMS_P1;PMS_P2;Temp;Humidity;BMP_temperature;BMP_pressure;BME280_temperature;BME280_humidity;BME280_pressure;Samples;Min_cycle;Max_cycle;Signal;HPM_P1;HPM_P2
2022/01/04 00:01:49;;;;;;;;;5.00;4.00;;;;;21.78;57.19;99532.64;110924;1264;18832;-74
2022/01/04 00:04:16;;;;;;;;;5.00;3.00;;;;;21.76;57.14;99534.98;110910;1264;18690;-75
2022/01/04 00:06:45;;;;;;;;;5.50;4.00;;;;;21.77;57.07;99539.55;110893;1264;19538;-73
2022/01/04 00:09:12;;;;;;;;;5.33;5.00;;;;;21.77;56.93;99538.34;110919;1264;23520;-73
2022/01/04 00:11:57;;;;;;;;;6.33;3.67;;;;;21.77;57.05;99534.02;110928;1264;19246;-74
2022/01/04 00:14:24;;;;;;;;;2.00;2.00;;;;;21.77;57.08;99536.29;110812;1264;19515;-73
2022/01/04 00:16:55;;;;;;;;;5.00;5.00;;;;;21.77;56.93;99531.09;110856;1264;18346;-74
2022/01/04 00:19:22;;;;;;;;;5.33;5.00;;;;;21.77;56.96;99528.48;110953;1264;18684;-74
2022/01/04 00:21:49;;;;;;;;;3.00;3.00;;;;;21.78;56.89;99527.09;110844;1264;21609;-74
2022/01/04 00:24:17;;;;;;;;;4.67;4.67;;;;;21.78;56.88;99523.86;110874;1264;19134;-74
2022/01/04 00:26:44;;;;;;;;;5.33;5.33;;;;;21.77;56.71;99517.23;110928;1264;18674;-73
2022/01/04 00:29:11;;;;;;;;;3.67;3.00;;;;;21.76;56.76;99515.13;110845;1264;20014;-73
2022/01/04 00:31:38;;;;;;;;;5.00;5.00;;;;;21.76;56.81;99512.79;110844;1265;18609;-73
2022/01/04 00:34:06;;;;;;;;;4.50;4.50;;;;;21.75;56.81;99511.48;110870;1264;18938;-73
2022/01/04 00:36:33;;;;;;;;;6.50;5.50;;;;;21.76;56.71;99518.40;110841;1264;20959;-73
2022/01/04 00:39:00;;;;;;;;;4.67;3.33;;;;;21.76;56.60;99512.86;110865;1264;22150;-73
2022/01/04 00:41:28;;;;;;;;;6.00;5.00;;;;;21.76;56.77;99508.66;110839;1264;19302;-73
2022/01/04 00:43:55;;;;;;;;;3.00;3.00;;;;;21.76;56.78;99504.68;110791;1264;20313;-73
2022/01/04 00:46:22;;;;;;;;;2.00;2.00;;;;;21.76;56.68;99504.52;110828;1263;18442;-76
2022/01/04 00:51:35;;;;;;;;;3.00;3.00;;;;;21.75;56.63;99501.86;110815;1264;19371;-73
2022/01/04 00:54:02;;;;;;;;;4.00;3.00;;;;;21.74;56.62;99498.60;110836;1264;18875;-74
2022/01/04 00:56:30;;;;;;;;;4.00;3.00;;;;;21.74;56.49;99497.68;110853;1264;19039;-74
2022/01/04 00:58:57;;;;;;;;;3.00;3.00;;;;;21.74;56.43;99492.01;110818;1265;23800;-75
2022/01/04 01:01:24;;;;;;;;;5.00;3.00;;;;;21.73;56.58;99490.39;110901;1263;18885;-74
2022/01/04 01:03:52;;;;;;;;;2.67;2.67;;;;;21.73;56.56;99491.17;110859;1264;27091;-74
2022/01/04 01:06:19;;;;;;;;;2.33;2.33;;;;;21.74;56.47;99489.99;110881;1263;19479;-74
2022/01/04 01:08:46;;;;;;;;;5.00;3.00;;;;;21.75;56.31;99487.35;110980;1264;18646;-74
2022/01/04 01:11:14;;;;;;;;;3.00;3.00;;;;;21.74;56.35;99480.46;110918;1264;19220;-74
2022/01/04 01:13:41;;;;;;;;;3.00;3.00;;;;;21.74;56.36;99474.02;110885;1264;20122;-74
2022/01/04 01:16:08;;;;;;;;;2.33;2.00;;;;;21.74;56.25;99473.47;110848;1264;18335;-73
2022/01/04 01:18:36;;;;;;;;;2.67;2.67;;;;;21.73;56.30;99470.83;110836;1264;19591;-73
2022/01/04 01:21:03;;;;;;;;;3.33;3.33;;;;;21.73;56.19;99475.58;110846;1264;21995;-74
2022/01/04 01:23:31;;;;;;;;;3.00;2.00;;;;;21.73;56.16;99470.33;110916;1265;18658;-75
2022/01/04 01:25:58;;;;;;;;;4.67;3.00;;;;;21.74;56.20;99464.91;110890;1264;19422;-73
2022/01/04 01:28:25;;;;;;;;;4.00;4.00;;;;;21.75;56.23;99461.77;110869;1264;19514;-73
2022/01/04 01:30:53;;;;;;;;;3.00;3.00;;;;;21.73;56.08;99457.56;110894;1264;18615;-73
2022/01/04 01:33:20;;;;;;;;;3.00;3.00;;;;;21.72;56.22;99450.61;110884;1264;18738;-73
2022/01/04 01:35:48;;;;;;;;;2.67;2.67;;;;;21.72;56.05;99445.16;110941;1264;19510;-73
2022/01/04 01:38:16;;;;;;;;;3.00;2.00;;;;;21.72;56.12;99447.21;110875;1264;22346;-73
2022/01/04 01:40:44;;;;;;;;;3.67;3.00;;;;;21.73;56.12;99444.19;110862;1264;18688;-73
2022/01/04 01:43:11;;;;;;;;;5.00;5.00;;;;;21.73;55.97;99445.61;110866;1264;19512;-73
2022/01/04 01:45:39;;;;;;;;;3.00;3.00;;;;;21.73;56.05;99445.02;110879;1264;18538;-73
2022/01/04 01:48:06;;;;;;;;;2.00;2.00;;;;;21.73;56.00;99446.58;110831;1265;19440;-73
2022/01/04 01:50:33;;;;;;;;;5.00;4.67;;;;;21.73;56.07;99442.72;110891;1264;21993;-75
2022/01/04 01:53:01;;;;;;;;;3.00;3.00;;;;;21.73;56.00;99446.20;110864;1264;18500;-74
2022/01/04 01:55:28;;;;;;;;;2.00;2.00;;;;;21.72;55.96;99444.98;110822;1264;19650;-75
2022/01/04 01:57:55;;;;;;;;;3.00;3.00;;;;;21.73;55.88;99444.57;110850;1264;21720;-72
2022/01/04 02:00:23;;;;;;;;;2.00;2.00;;;;;21.72;55.90;99442.98;110845;1264;23579;-75
2022/01/04 02:02:50;;;;;;;;;3.00;3.00;;;;;21.72;55.76;99435.48;110931;1264;19951;-74
2022/01/04 02:05:17;;;;;;;;;3.00;2.33;;;;;21.71;55.85;99435.77;110881;1264;20116;-73
2022/01/04 02:07:45;;;;;;;;;2.00;2.00;;;;;21.70;55.91;99430.05;110853;1263;18510;-72
2022/01/04 02:10:12;;;;;;;;;3.00;3.00;;;;;21.70;55.77;99426.20;110869;1264;19115;-73
2022/01/04 02:12:39;;;;;;;;;3.00;3.00;;;;;21.71;55.88;99422.89;110843;1264;19695;-72
2022/01/04 02:15:07;;;;;;;;;5.33;5.00;;;;;21.71;55.89;99415.21;110887;1264;18968;-75
2022/01/04 02:17:34;;;;;;;;;2.00;2.00;;;;;21.71;55.79;99419.96;110925;1264;19416;-73
2022/01/04 02:20:01;;;;;;;;;2.33;2.33;;;;;21.71;55.68;99422.98;110795;1263;20633;-73
2022/01/04 02:22:29;;;;;;;;;5.67;5.67;;;;;21.71;55.99;99423.23;110858;1264;18616;-73
2022/01/04 02:24:56;;;;;;;;;3.00;3.00;;;;;21.71;55.62;99426.64;110826;1264;18740;-73
2022/01/04 02:27:23;;;;;;;;;2.00;2.00;;;;;21.71;55.78;99424.28;110767;1263;19707;-75
2022/01/04 02:29:51;;;;;;;;;2.00;2.00;;;;;21.70;55.78;99423.81;110895;1265;18324;-73
2022/01/04 02:32:18;;;;;;;;;3.00;2.00;;;;;21.70;55.61;99421.80;110820;1263;18677;-73
2022/01/04 02:34:45;;;;;;;;;3.00;3.00;;;;;21.70;55.60;99422.04;110822;1264;21549;-73
2022/01/04 02:37:12;;;;;;;;;5.00;4.00;;;;;21.71;55.55;99422.81;110850;1264;18678;-73
2022/01/04 02:39:40;;;;;;;;;3.00;3.00;;;;;21.70;55.44;99423.13;110887;1263;21891;-73
2022/01/04 02:42:07;;;;;;;;;5.00;3.00;;;;;21.71;55.53;99422.34;110915;1264;19592;-72
2022/01/04 02:44:34;;;;;;;;;2.00;2.00;;;;;21.70;55.55;99416.01;110893;1264;18684;-73
2022/01/04 02:47:02;;;;;;;;;2.00;2.00;;;;;21.70;55.63;99410.38;110900;1264;21243;-73
2022/01/04 02:49:29;;;;;;;;;3.00;3.00;;;;;21.71;55.45;99413.78;110828;1264;19484;-75
2022/01/04 02:51:56;;;;;;;;;2.67;2.67;;;;;21.70;55.45;99402.95;110949;1261;18622;-74
2022/01/04 02:54:24;;;;;;;;;5.00;3.00;;;;;21.70;55.61;99393.67;111052;1262;18679;-75
2022/01/04 02:56:51;;;;;;;;;3.00;3.00;;;;;21.70;55.40;99401.88;111057;1261;19639;-75
2022/01/04 02:59:18;;;;;;;;;3.67;2.33;;;;;21.70;55.56;99402.08;111050;1261;18903;-76
2022/01/04 03:01:46;;;;;;;;;3.00;3.00;;;;;21.69;55.46;99404.02;110979;1262;19491;-75
2022/01/04 03:04:13;;;;;;;;;2.00;2.00;;;;;21.70;55.36;99400.73;111004;1262;21641;-75
2022/01/04 03:06:40;;;;;;;;;5.00;3.00;;;;;21.69;55.54;99396.54;111033;1261;18484;-74
2022/01/04 03:09:08;;;;;;;;;2.00;2.00;;;;;21.67;55.48;99393.02;111021;1262;23414;-74
2022/01/04 03:11:35;;;;;;;;;2.00;2.00;;;;;21.68;55.29;99388.86;111029;1261;20127;-74
2022/01/04 03:14:02;;;;;;;;;3.00;3.00;;;;;21.67;55.34;99385.89;111037;1261;21147;-74
2022/01/04 03:16:30;;;;;;;;;3.00;2.00;;;;;21.67;55.30;99377.81;110980;1262;18993;-74
2022/01/04 03:19:07;;;;;;;;;3.00;2.33;;;;;21.65;55.31;99372.58;110852;1265;21894;-74
2022/01/04 03:21:34;;;;;;;;;2.67;2.67;;;;;21.64;55.33;99366.33;110947;1261;18905;-74
2022/01/04 03:24:01;;;;;;;;;2.00;2.00;;;;;21.66;55.38;99367.33;110970;1262;18912;-74
2022/01/04 03:26:29;;;;;;;;;4.67;2.67;;;;;21.65;55.23;99360.63;110911;1261;20475;-73
2022/01/04 03:28:56;;;;;;;;;4.33;2.67;;;;;21.67;55.30;99361.27;110946;1262;23137;-74
2022/01/04 03:31:24;;;;;;;;;5.00;5.00;;;;;21.66;55.31;99363.34;110917;1262;18767;-75
2022/01/04 03:33:51;;;;;;;;;2.00;2.00;;;;;21.67;55.20;99362.83;110930;1262;20917;-73
2022/01/04 03:36:20;;;;;;;;;2.00;2.00;;;;;21.67;55.22;99358.29;110873;1262;18591;-73
2022/01/04 03:38:48;;;;;;;;;2.33;2.33;;;;;21.66;55.30;99356.03;110942;1262;22839;-74
2022/01/04 03:41:16;;;;;;;;;2.00;2.00;;;;;21.68;55.27;99348.22;110949;1262;19626;-74
2022/01/04 03:43:43;;;;;;;;;2.00;2.00;;;;;21.67;55.00;99347.73;110966;1261;18871;-72
2022/01/04 03:46:10;;;;;;;;;2.00;2.00;;;;;21.67;55.10;99341.94;111037;1261;18622;-73
2022/01/04 03:48:37;;;;;;;;;2.00;2.00;;;;;21.67;55.19;99337.83;110924;1262;19471;-73
2022/01/04 03:51:05;;;;;;;;;2.00;2.00;;;;;21.67;55.17;99340.52;111052;1261;18734;-73
2022/01/04 03:53:32;;;;;;;;;2.00;2.00;;;;;21.68;54.99;99338.02;110930;1262;18885;-75
2022/01/04 03:55:59;;;;;;;;;3.00;2.00;;;;;21.69;55.09;99337.02;110943;1261;20981;-74
2022/01/04 03:58:27;;;;;;;;;3.00;3.00;;;;;21.67;55.18;99333.59;110912;1262;18495;-74
2022/01/04 04:00:54;;;;;;;;;2.00;1.33;;;;;21.67;55.10;99334.89;110865;1261;25766;-73
2022/01/04 04:03:21;;;;;;;;;2.00;2.00;;;;;21.67;55.09;99332.92;110951;1262;19600;-73
2022/01/04 04:05:50;;;;;;;;;3.00;3.00;;;;;21.65;55.12;99334.18;110962;1262;20243;-72
2022/01/04 04:08:17;;;;;;;;;2.00;2.00;;;;;21.65;55.07;99333.73;111043;1261;18807;-75
2022/01/04 04:10:45;;;;;;;;;3.33;3.33;;;;;21.65;55.16;99334.06;111000;1262;21970;-73
2022/01/04 04:13:12;;;;;;;;;3.00;3.00;;;;;21.65;54.95;99330.77;110960;1261;18401;-75
2022/01/04 04:15:40;;;;;;;;;2.00;2.00;;;;;21.65;55.00;99331.30;110957;1262;18932;-76
2022/01/04 04:18:08;;;;;;;;;2.00;2.00;;;;;21.65;54.94;99334.10;111049;1261;22191;-74
2022/01/04 04:20:35;;;;;;;;;4.50;4.50;;;;;21.65;55.13;99331.53;110953;1262;18473;-75
2022/01/04 04:23:02;;;;;;;;;2.00;2.00;;;;;21.64;55.08;99331.45;110965;1262;18923;-75
2022/01/04 04:25:30;;;;;;;;;2.00;2.00;;;;;21.65;55.06;99330.45;110950;1262;20190;-75
2022/01/04 04:27:57;;;;;;;;;2.67;2.67;;;;;21.62;55.11;99325.06;110893;1261;21643;-74
2022/01/04 04:30:24;;;;;;;;;4.00;3.00;;;;;21.65;54.91;99326.39;110905;1262;18754;-75
2022/01/04 04:32:52;;;;;;;;;3.00;3.00;;;;;21.65;54.99;99322.07;110958;1262;19392;-75
2022/01/04 04:35:19;;;;;;;;;2.33;2.33;;;;;21.65;55.04;99321.56;110947;1261;21690;-75
2022/01/04 04:37:46;;;;;;;;;3.00;3.00;;;;;21.63;54.90;99321.02;110959;1262;18992;-73
2022/01/04 04:40:14;;;;;;;;;2.33;2.33;;;;;21.63;54.84;99320.35;110942;1262;19810;-73
2022/01/04 04:42:41;;;;;;;;;2.00;2.00;;;;;21.63;55.15;99321.22;110917;1262;22954;-73
2022/01/04 04:45:08;;;;;;;;;2.67;2.67;;;;;21.61;54.78;99312.84;111062;1262;18704;-72
2022/01/04 04:47:36;;;;;;;;;2.00;2.00;;;;;21.62;54.90;99306.67;111013;1262;20082;-75
2022/01/04 04:50:03;;;;;;;;;2.00;2.00;;;;;21.63;54.79;99305.41;110959;1262;19933;-75
2022/01/04 04:52:30;;;;;;;;;2.00;2.00;;;;;21.63;54.86;99305.95;110939;1262;21644;-75
2022/01/04 04:54:57;;;;;;;;;2.33;2.33;;;;;21.62;54.77;99291.08;111023;1261;22632;-72
2022/01/04 04:57:25;;;;;;;;;2.00;2.00;;;;;21.62;54.62;99293.71;110990;1262;22162;-73
2022/01/04 04:59:52;;;;;;;;;4.00;2.00;;;;;21.62;54.82;99292.70;110945;1261;19240;-75
2022/01/04 05:02:19;;;;;;;;;2.00;2.00;;;;;21.61;54.77;99290.04;110934;1262;19563;-76
2022/01/04 05:04:47;;;;;;;;;3.00;2.00;;;;;21.63;54.91;99288.21;110989;1261;18605;-74
2022/01/04 05:07:14;;;;;;;;;3.00;3.00;;;;;21.64;54.73;99287.70;110933;1262;18907;-74
2022/01/04 05:09:41;;;;;;;;;3.00;3.00;;;;;21.63;54.65;99281.91;110890;1262;19489;-73
2022/01/04 05:12:09;;;;;;;;;2.67;2.67;;;;;21.63;54.61;99279.16;111048;1262;18567;-74
2022/01/04 05:14:39;;;;;;;;;3.00;3.00;;;;;21.63;54.73;99279.48;110983;1262;20114;-74
2022/01/04 05:17:06;;;;;;;;;2.33;2.33;;;;;21.63;54.58;99275.84;110969;1262;21679;-73
2022/01/04 05:19:33;;;;;;;;;4.00;3.00;;;;;21.63;54.56;99275.84;110964;1262;18435;-73
2022/01/04 05:22:01;;;;;;;;;2.00;2.00;;;;;21.61;54.67;99267.84;111055;1261;21690;-76
2022/01/04 05:24:28;;;;;;;;;3.00;3.00;;;;;21.61;54.79;99261.85;110938;1262;19444;-73
2022/01/04 05:26:55;;;;;;;;;2.00;2.00;;;;;21.60;54.65;99256.48;111040;1262;18776;-73
2022/01/04 05:29:22;;;;;;;;;2.00;2.00;;;;;21.60;54.61;99257.45;110954;1261;18836;-73
2022/01/04 05:31:50;;;;;;;;;3.00;2.33;;;;;21.61;54.75;99260.08;110967;1261;21074;-74
2022/01/04 05:34:17;;;;;;;;;3.00;2.33;;;;;21.61;54.54;99258.08;111031;1261;18418;-73
2022/01/04 05:36:44;;;;;;;;;2.67;2.67;;;;;21.61;54.63;99259.75;110922;1262;19337;-73
2022/01/04 05:39:12;;;;;;;;;3.00;2.00;;;;;21.61;54.55;99254.84;110918;1262;19510;-73
2022/01/04 05:41:39;;;;;;;;;2.00;2.00;;;;;21.59;54.53;99246.63;110934;1261;21625;-73
2022/01/04 05:44:07;;;;;;;;;3.00;2.00;;;;;21.60;54.65;99242.60;110958;1262;18989;-73
2022/01/04 05:46:34;;;;;;;;;2.67;2.00;;;;;21.60;54.64;99242.94;110951;1262;20956;-73
2022/01/04 05:49:02;;;;;;;;;2.00;2.00;;;;;21.59;54.44;99244.50;110997;1261;18450;-73
2022/01/04 05:51:29;;;;;;;;;3.00;2.00;;;;;21.60;54.45;99236.94;110971;1262;20327;-74
2022/01/04 05:53:57;;;;;;;;;2.00;2.00;;;;;21.59;54.61;99233.38;110996;1262;19741;-74
2022/01/04 05:56:24;;;;;;;;;2.00;2.00;;;;;21.60;54.34;99236.39;110908;1262;18549;-73
2022/01/04 05:58:51;;;;;;;;;2.00;2.00;;;;;21.60;54.60;99228.21;110916;1262;19366;-73
2022/01/04 06:01:19;;;;;;;;;4.00;2.00;;;;;21.61;54.40;99229.34;111021;1262;19469;-73
2022/01/04 06:03:46;;;;;;;;;2.00;2.00;;;;;21.61;54.59;99230.98;111050;1262;18592;-73
2022/01/04 06:06:14;;;;;;;;;2.00;2.00;;;;;21.60;54.46;99233.83;110937;1262;20225;-73
2022/01/04 06:08:41;;;;;;;;;3.00;3.00;;;;;21.60;54.45;99234.55;110966;1262;21552;-73
2022/01/04 06:11:18;;;;;;;;;2.33;2.00;;;;;21.59;54.63;99232.92;111004;1261;18610;-73
2022/01/04 06:16:31;;;;;;;;;2.00;2.00;;;;;21.60;54.48;99228.88;111000;1262;19470;-73
2022/01/04 06:18:58;;;;;;;;;2.50;2.50;;;;;21.60;54.51;99226.80;110948;1262;18591;-73
2022/01/04 06:21:25;;;;;;;;;2.00;2.00;;;;;21.59;54.36;99234.68;110992;1262;19116;-75
2022/01/04 06:23:54;;;;;;;;;1.67;1.67;;;;;21.60;54.50;99242.94;111080;1261;19860;-73
2022/01/04 06:26:21;;;;;;;;;1.67;1.67;;;;;21.59;54.44;99235.83;111039;1262;18421;-73
2022/01/04 06:28:48;;;;;;;;;2.33;2.00;;;;;21.59;54.58;99235.98;110985;1261;19327;-73
2022/01/04 06:31:16;;;;;;;;;3.33;3.00;;;;;21.59;54.37;99228.73;110924;1262;19937;-74
2022/01/04 06:33:43;;;;;;;;;2.33;2.33;;;;;21.58;54.58;99229.56;110876;1262;18495;-73
2022/01/04 06:36:10;;;;;;;;;4.00;3.00;;;;;21.58;54.46;99225.50;111080;1261;18772;-73
2022/01/04 06:38:37;;;;;;;;;2.00;2.00;;;;;21.58;54.49;99224.63;110997;1262;21979;-73
2022/01/04 06:41:05;;;;;;;;;2.00;2.00;;;;;21.59;54.53;99223.82;110970;1262;21960;-74
2022/01/04 06:43:32;;;;;;;;;2.00;2.00;;;;;21.59;54.45;99214.35;111046;1261;18768;-74
2022/01/04 06:45:59;;;;;;;;;2.33;2.33;;;;;21.64;54.21;99216.45;110907;1262;19796;-75
2022/01/04 06:48:27;;;;;;;;;3.00;3.00;;;;;21.64;54.26;99212.42;110962;1262;19682;-73
2022/01/04 06:50:54;;;;;;;;;3.00;3.00;;;;;21.67;54.29;99214.50;111051;1261;22024;-74
2022/01/04 06:53:21;;;;;;;;;3.00;2.33;;;;;21.73;54.43;99209.80;110921;1261;19464;-75
2022/01/04 06:55:50;;;;;;;;;5.00;3.33;;;;;21.79;54.95;99209.24;110947;1262;18475;-75
2022/01/04 06:58:17;;;;;;;;;2.00;2.00;;;;;21.78;55.14;99206.88;110933;1262;18761;-75
2022/01/04 07:00:44;;;;;;;;;5.00;4.67;;;;;21.77;55.29;99203.65;110913;1261;19442;-73
2022/01/04 07:03:12;;;;;;;;;2.67;2.67;;;;;21.78;55.39;99200.96;111009;1262;18481;-74
2022/01/04 07:05:39;;;;;;;;;2.00;2.00;;;;;21.82;55.63;99200.50;110974;1262;21516;-74
2022/01/04 07:08:06;;;;;;;;;3.00;3.00;;;;;21.90;56.31;99194.45;110969;1262;19605;-73
2022/01/04 07:10:34;;;;;;;;;2.00;2.00;;;;;21.95;56.17;99192.39;110920;1262;19948;-73
2022/01/04 07:13:01;;;;;;;;;2.33;2.33;;;;;21.96;56.30;99187.27;110975;1262;22832;-75
2022/01/04 07:15:28;;;;;;;;;3.00;3.00;;;;;21.94;56.51;99187.86;110878;1262;21602;-73
2022/01/04 07:17:56;;;;;;;;;2.00;2.00;;;;;21.94;56.42;99187.55;111036;1261;18936;-74
2022/01/04 07:20:23;;;;;;;;;5.00;3.67;;;;;21.97;56.46;99189.55;110878;1261;18815;-74
2022/01/04 07:22:50;;;;;;;;;3.00;3.00;;;;;21.99;56.51;99183.45;110936;1261;21490;-74
2022/01/04 07:25:18;;;;;;;;;4.00;3.00;;;;;22.02;57.07;99174.21;111013;1261;18393;-74
2022/01/04 07:27:45;;;;;;;;;3.00;3.00;;;;;22.03;57.19;99170.29;110863;1262;26196;-75
2022/01/04 07:30:13;;;;;;;;;3.00;3.00;;;;;22.00;56.96;99167.88;111012;1262;19492;-74
2022/01/04 07:32:40;;;;;;;;;6.00;5.00;;;;;21.97;56.78;99167.79;110955;1262;18769;-75
2022/01/04 07:35:08;;;;;;;;;4.33;3.00;;;;;21.94;56.80;99167.89;110937;1262;18891;-75
2022/01/04 07:37:35;;;;;;;;;5.00;3.00;;;;;21.90;56.84;99162.14;110928;1261;27942;-77
2022/01/04 07:40:02;;;;;;;;;5.00;5.00;;;;;21.84;56.83;99166.08;110903;1261;18482;-75
2022/01/04 07:42:30;;;;;;;;;3.00;3.00;;;;;21.81;56.96;99160.31;110984;1261;18749;-77
2022/01/04 07:44:57;;;;;;;;;2.00;2.00;;;;;21.86;56.77;99152.35;110917;1261;19836;-75
2022/01/04 07:47:24;;;;;;;;;5.00;5.00;;;;;21.87;57.12;99150.58;110947;1262;18648;-74
2022/01/04 07:49:51;;;;;;;;;19.00;16.67;;;;;21.86;57.04;99142.11;110943;1262;18694;-78
2022/01/04 07:52:19;;;;;;;;;64.00;49.33;;;;;21.86;56.96;99144.02;110797;1262;20105;-75
2022/01/04 07:54:47;;;;;;;;;72.00;54.00;;;;;21.88;56.95;99139.45;110927;1262;19116;-74
2022/01/04 07:57:14;;;;;;;;;164.50;122.25;;;;;21.93;56.50;99139.83;111037;1262;18957;-74
2022/01/04 07:59:42;;;;;;;;;182.50;136.75;;;;;21.97;56.51;99127.79;111009;1261;19986;-75
2022/01/04 08:02:14;;;;;;;;;191.75;142.00;;;;;21.99;56.70;99119.13;110808;1264;20523;-74
2022/01/04 08:04:45;;;;;;;;;136.75;106.25;;;;;22.01;56.88;99126.13;110815;1264;18981;-75
2022/01/04 08:07:13;;;;;;;;;115.00;93.00;;;;;22.03;57.38;99123.02;110922;1262;20901;-75
2022/01/04 08:09:41;;;;;;;;;107.00;84.00;;;;;22.04;57.30;99117.42;110789;1265;19140;-74
2022/01/04 08:12:08;;;;;;;;;101.50;73.50;;;;;22.06;57.22;99113.90;110960;1262;22727;-74
2022/01/04 08:14:36;;;;;;;;;96.00;69.00;;;;;22.07;57.34;99100.50;110939;1261;19396;-75
2022/01/04 08:17:03;;;;;;;;;95.00;68.50;;;;;22.06;57.99;99097.91;111037;1261;19409;-76
2022/01/04 08:19:30;;;;;;;;;83.00;63.00;;;;;22.06;57.87;99098.23;110831;1262;18955;-73
2022/01/04 08:21:57;;;;;;;;;81.33;59.00;;;;;22.08;57.54;99101.04;110916;1262;19747;-73
2022/01/04 08:24:25;;;;;;;;;81.33;59.67;;;;;22.09;57.33;99099.45;111015;1261;19015;-69
2022/01/04 08:26:52;;;;;;;;;77.00;55.00;;;;;22.09;57.43;99098.55;110921;1264;19476;-72
2022/01/04 08:29:20;;;;;;;;;69.00;51.00;;;;;22.10;57.23;99104.10;110972;1262;19804;-73
2022/01/04 08:31:51;;;;;;;;;69.33;50.33;;;;;22.10;57.52;99105.30;110975;1262;19352;-74
2022/01/04 08:34:18;;;;;;;;;64.00;48.50;;;;;22.43;58.37;99096.16;110804;1264;24151;-74
2022/01/04 08:36:46;;;;;;;;;60.00;43.00;;;;;22.79;57.92;99088.95;110814;1265;19697;-77
2022/01/04 08:39:15;;;;;;;;;54.00;44.50;;;;;22.56;57.30;99084.11;111067;1261;22604;-74
2022/01/04 08:41:43;;;;;;;;;51.00;42.67;;;;;22.27;57.66;99091.43;110821;1264;19016;-73
2022/01/04 08:44:10;;;;;;;;;50.67;39.33;;;;;22.19;57.69;99092.45;110909;1261;20271;-75
2022/01/04 08:46:37;;;;;;;;;44.33;37.00;;;;;22.18;57.70;99093.55;110976;1261;18967;-76
2022/01/04 08:49:07;;;;;;;;;35.00;31.00;;;;;22.16;57.60;99095.77;110977;1262;18260;-74
2022/01/04 08:51:34;;;;;;;;;37.33;32.00;;;;;22.14;57.51;99092.95;110932;1261;22189;-74
2022/01/04 08:54:01;;;;;;;;;35.33;30.00;;;;;22.09;57.51;99085.13;111017;1261;18643;-75
2022/01/04 08:56:29;;;;;;;;;36.50;31.00;;;;;22.01;57.62;99079.90;110884;1262;151581;-73
2022/01/04 08:58:56;;;;;;;;;37.33;31.00;;;;;21.98;57.36;99085.64;110946;1260;19550;-73
2022/01/04 09:01:23;;;;;;;;;33.67;27.00;;;;;21.94;57.20;99082.70;110964;1262;20707;-70
2022/01/04 09:03:51;;;;;;;;;32.50;27.00;;;;;21.94;57.03;99081.36;110954;1262;19020;-71
2022/01/04 09:06:20;;;;;;;;;27.67;23.00;;;;;21.94;56.79;99080.39;110936;1262;19448;-72
2022/01/04 09:08:47;;;;;;;;;26.00;22.33;;;;;21.94;56.73;99077.64;111045;1262;19599;-73
2022/01/04 09:11:15;;;;;;;;;31.50;23.00;;;;;21.94;56.31;99074.23;110967;1262;18988;-75
2022/01/04 09:13:44;;;;;;;;;26.67;21.00;;;;;21.95;55.95;99074.93;110882;1261;19669;-74
2022/01/04 09:18:53;;;;;;;;;26.00;23.00;;;;;22.08;55.88;99070.98;110697;1267;19382;-75
2022/01/04 09:21:20;;;;;;;;;23.00;18.00;;;;;22.12;55.80;99063.80;110718;1267;22016;-73
2022/01/04 09:23:48;;;;;;;;;24.00;21.33;;;;;22.11;56.19;99060.61;110717;1267;18831;-73
2022/01/04 09:26:15;;;;;;;;;22.00;18.00;;;;;22.09;56.24;99057.98;110706;1267;20137;-75
2022/01/04 09:28:43;;;;;;;;;23.33;20.00;;;;;22.12;56.43;99050.64;110664;1267;20025;-73
2022/01/04 09:31:10;;;;;;;;;21.00;18.50;;;;;22.16;56.11;99045.58;110668;1267;19193;-74
2022/01/04 09:33:38;;;;;;;;;19.00;18.50;;;;;22.12;56.03;99043.52;110668;1267;22112;-74
2022/01/04 09:36:05;;;;;;;;;22.00;19.67;;;;;22.06;55.77;99036.25;110722;1266;20548;-73
2022/01/04 09:38:32;;;;;;;;;25.00;19.00;;;;;22.01;56.12;99040.23;110584;1266;20323;-72
2022/01/04 09:41:00;;;;;;;;;22.33;20.33;;;;;22.00;55.99;99030.56;110493;1266;21119;-73
2022/01/04 09:43:27;;;;;;;;;57.00;41.67;;;;;22.06;56.35;99027.69;110494;1267;19514;-71
2022/01/04 09:45:54;;;;;;;;;68.33;51.00;;;;;22.08;56.65;99025.99;110640;1267;18907;-72
2022/01/04 09:48:22;;;;;;;;;68.67;50.00;;;;;22.09;57.21;99020.27;110698;1267;18864;-72
2022/01/04 09:50:49;;;;;;;;;60.00;46.00;;;;;22.11;57.53;99018.41;110682;1267;20127;-72
2022/01/04 09:53:19;;;;;;;;;56.00;42.00;;;;;22.10;57.26;99015.95;110489;1266;18815;-72
2022/01/04 09:55:46;;;;;;;;;38.00;31.33;;;;;22.10;57.62;99008.31;110675;1265;20295;-72
2022/01/04 09:58:14;;;;;;;;;47.50;33.50;;;;;22.03;57.68;99000.64;110889;1262;19634;-72
2022/01/04 10:00:41;;;;;;;;;42.00;31.00;;;;;22.05;57.47;99002.94;110933;1261;24048;-72
2022/01/04 10:03:08;;;;;;;;;120.67;74.67;;;;;22.12;57.83;99006.36;110859;1264;22137;-71
2022/01/04 10:05:36;;;;;;;;;229.00;161.25;;;;;22.16;58.06;99013.29;110870;1262;19649;-72
2022/01/04 10:08:03;;;;;;;;;248.25;171.00;;;;;22.19;57.88;99013.98;110947;1261;18991;-72
2022/01/04 10:10:31;;;;;;;;;255.00;173.00;;;;;22.19;57.84;99014.77;110949;1262;19392;-71
2022/01/04 10:12:59;;;;;;;;;220.50;154.00;;;;;22.22;57.76;98999.41;110916;1261;26217;-71
2022/01/04 10:15:27;;;;;;;;;256.25;179.50;;;;;22.21;57.62;98986.95;110859;1261;19113;-74
2022/01/04 10:17:54;;;;;;;;;305.50;205.50;;;;;22.17;57.13;98977.34;110872;1264;22200;-72
2022/01/04 10:20:22;;;;;;;;;265.25;175.50;;;;;22.13;56.71;98976.98;110831;1263;23212;-75
2022/01/04 10:22:50;;;;;;;;;321.00;213.50;;;;;22.07;56.68;98979.51;110886;1262;20537;-73
2022/01/04 10:25:19;;;;;;;;;312.00;208.00;;;;;22.08;56.68;98976.85;110950;1261;22969;-73
2022/01/04 10:27:46;;;;;;;;;272.50;190.00;;;;;22.01;56.56;98975.25;110905;1262;19578;-71
2022/01/04 10:30:14;;;;;;;;;258.00;168.00;;;;;21.93;56.38;98979.44;111002;1261;19704;-74
2022/01/04 10:32:41;;;;;;;;;238.00;157.25;;;;;21.88;56.37;98970.23;110988;1261;22091;-71
2022/01/04 10:35:08;;;;;;;;;185.00;131.00;;;;;21.85;56.34;98972.61;111006;1262;19513;-74
2022/01/04 10:37:38;;;;;;;;;146.00;106.00;;;;;21.80;55.68;98965.20;110894;1262;18990;-75
2022/01/04 10:40:06;;;;;;;;;146.33;99.67;;;;;21.69;54.73;98954.75;110885;1261;22219;-75
2022/01/04 10:42:33;;;;;;;;;144.25;102.50;;;;;21.65;54.18;98949.13;110991;1262;22222;-73
2022/01/04 10:45:01;;;;;;;;;131.67;95.33;;;;;21.60;53.69;98944.77;111008;1261;22819;-73
2022/01/04 10:47:29;;;;;;;;;110.00;84.00;;;;;21.44;53.56;98931.19;110988;1261;19654;-70
2022/01/04 10:49:57;;;;;;;;;99.50;69.50;;;;;21.55;53.52;98930.03;110753;1262;19998;-72
2022/01/04 10:52:25;;;;;;;;;96.00;66.00;;;;;21.46;52.69;98926.20;110669;1262;18989;-72
2022/01/04 10:54:52;;;;;;;;;97.67;66.33;;;;;21.42;52.13;98928.59;110764;1262;19109;-72
2022/01/04 10:57:19;;;;;;;;;79.00;57.00;;;;;21.38;51.25;98933.63;110748;1262;20949;-73
2022/01/04 10:59:47;;;;;;;;;68.00;51.00;;;;;21.28;50.46;98927.21;110746;1262;19409;-70
2022/01/04 11:02:14;;;;;;;;;68.67;50.67;;;;;21.18;49.92;98932.52;110743;1262;18858;-69
2022/01/04 11:04:43;;;;;;;;;67.67;48.00;;;;;21.12;49.52;98922.65;110766;1261;19610;-71
2022/01/04 11:07:10;;;;;;;;;62.67;42.33;;;;;21.09;49.43;98916.02;110992;1261;18743;-71
2022/01/04 16:16:40;;;;;;;;;53.33;44.00;;;;;21.60;56.29;98506.87;108812;1283;18662;-64
2022/01/04 16:21:50;;;;;;;;;56.67;43.67;;;;;21.50;56.82;98503.35;112947;1242;19241;-69
2022/01/04 16:24:18;;;;;;;;;46.67;42.00;;;;;21.48;56.43;98499.05;112879;1242;18576;-68
2022/01/04 16:26:44;;;;;;;;;53.00;43.67;;;;;21.43;56.08;98494.08;112768;1242;18877;-66
2022/01/04 16:29:10;;;;;;;;;53.67;42.00;;;;;21.40;56.20;98493.49;112746;1242;19799;-69
2022/01/04 16:31:36;;;;;;;;;45.00;39.00;;;;;21.41;56.13;98491.80;112873;1242;18348;-66
2022/01/04 16:34:02;;;;;;;;;46.33;42.00;;;;;21.47;55.84;98488.77;112775;1242;21863;-65
2022/01/04 16:36:27;;;;;;;;;54.00;44.67;;;;;21.44;55.54;98488.58;112864;1242;18863;-67
2022/01/04 16:38:53;;;;;;;;;61.33;47.33;;;;;21.31;55.40;98483.98;112769;1242;19047;-65